sensor_id;sensor_type;location;lat;lon;timestamp;temperature;humidity
40291;DHT22;26000;48.304;13.626;2022-07-23T00:00:02;23.80;99.90
40291;DHT22;26000;48.304;13.626;2022-07-23T00:02:28;23.70;99.90
40291;DHT22;26000;48.304;13.626;2022-07-23T00:04:54;23.70;99.90
40291;DHT22;26000;48.304;13.626;2022-07-23T00:07:19;23.80;99.90
40291;DHT22;26000;48.304;13.626;2022-07-23T00:09:45;23.80;99.90
40291;DHT22;26000;48.304;13.626;2022-07-23T00:12:11;23.70;99.90
40291;DHT22;26000;48.304;13.626;2022-07-23T00:14:36;23.70;99.90
40291;DHT22;26000;48.304;13.626;2022-07-23T00:17:02;23.60;99.90
40291;DHT22;26000;48.304;13.626;2022-07-23T00:19:27;23.60;99.90
40291;DHT22;26000;48.304;13.626;2022-07-23T00:21:54;23.50;99.90
40291;DHT22;26000;48.304;13.626;2022-07-23T00:24:20;23.50;99.90
40291;DHT22;26000;48.304;13.626;2022-07-23T00:26:46;23.50;99.90
40291;DHT22;26000;48.304;13.626;2022-07-23T00:29:11;23.50;99.90
40291;DHT22;26000;48.304;13.626;2022-07-23T00:31:37;23.50;99.90
40291;DHT22;26000;48.304;13.626;2022-07-23T00:34:03;23.60;99.90
40291;DHT22;26000;48.304;13.626;2022-07-23T00:36:29;23.70;99.90
40291;DHT22;26000;48.304;13.626;2022-07-23T00:38:56;23.80;99.90
40291;DHT22;26000;48.304;13.626;2022-07-23T00:41:22;23.80;99.90
40291;DHT22;26000;48.304;13.626;2022-07-23T00:43:48;23.60;99.90
40291;DHT22;26000;48.304;13.626;2022-07-23T00:46:19;23.50;99.90
40291;DHT22;26000;48.304;13.626;2022-07-23T00:48:45;23.40;99.90
40291;DHT22;26000;48.304;13.626;2022-07-23T00:51:11;23.30;99.90
40291;DHT22;26000;48.304;13.626;2022-07-23T00:53:36;23.30;99.90
40291;DHT22;26000;48.304;13.626;2022-07-23T00:56:02;23.30;99.90
40291;DHT22;26000;48.304;13.626;2022-07-23T00:58:28;23.20;99.90
40291;DHT22;26000;48.304;13.626;2022-07-23T01:00:53;23.20;99.90
40291;DHT22;26000;48.304;13.626;2022-07-23T01:03:19;23.20;99.90
40291;DHT22;26000;48.304;13.626;2022-07-23T01:05:45;23.20;99.90
40291;DHT22;26000;48.304;13.626;2022-07-23T01:08:12;23.20;99.90
40291;DHT22;26000;48.304;13.626;2022-07-23T01:10:38;23.10;99.90
40291;DHT22;26000;48.304;13.626;2022-07-23T01:13:08;23.10;99.90
40291;DHT22;26000;48.304;13.626;2022-07-23T01:15:36;23.10;99.90
40291;DHT22;26000;48.304;13.626;2022-07-23T01:18:03;23.10;99.90
40291;DHT22;26000;48.304;13.626;2022-07-23T01:20:29;23.10;99.90
40291;DHT22;26000;48.304;13.626;2022-07-23T01:22:55;23.10;99.90
40291;DHT22;26000;48.304;13.626;2022-07-23T01:25:21;23.10;99.90
40291;DHT22;26000;48.304;13.626;2022-07-23T01:27:48;23.10;99.90
40291;DHT22;26000;48.304;13.626;2022-07-23T01:30:14;23.10;99.90
40291;DHT22;26000;48.304;13.626;2022-07-23T01:32:40;23.20;99.90
40291;DHT22;26000;48.304;13.626;2022-07-23T01:35:06;23.10;99.90
40291;DHT22;26000;48.304;13.626;2022-07-23T01:37:32;23.20;99.90
40291;DHT22;26000;48.304;13.626;2022-07-23T01:39:58;23.10;99.90
40291;DHT22;26000;48.304;13.626;2022-07-23T01:42:24;23.10;99.90
40291;DHT22;26000;48.304;13.626;2022-07-23T01:44:50;23.10;99.90
40291;DHT22;26000;48.304;13.626;2022-07-23T01:47:16;23.10;99.90
40291;DHT22;26000;48.304;13.626;2022-07-23T01:49:42;23.10;99.90
40291;DHT22;26000;48.304;13.626;2022-07-23T01:52:07;23.00;99.90
40291;DHT22;26000;48.304;13.626;2022-07-23T01:54:37;23.10;99.90
40291;DHT22;26000;48.304;13.626;2022-07-23T01:57:04;23.10;99.90
40291;DHT22;26000;48.304;13.626;2022-07-23T01:59:30;23.00;99.90
40291;DHT22;26000;48.304;13.626;2022-07-23T02:01:56;23.10;99.90
40291;DHT22;26000;48.304;13.626;2022-07-23T02:04:23;23.00;99.90
40291;DHT22;26000;48.304;13.626;2022-07-23T02:06:50;23.00;99.90
40291;DHT22;26000;48.304;13.626;2022-07-23T02:09:17;23.00;99.90
40291;DHT22;26000;48.304;13.626;2022-07-23T02:11:43;23.00;99.90
40291;DHT22;26000;48.304;13.626;2022-07-23T02:14:08;22.90;99.90
40291;DHT22;26000;48.304;13.626;2022-07-23T02:16:34;22.90;99.90
40291;DHT22;26000;48.304;13.626;2022-07-23T02:19:00;22.90;99.90
40291;DHT22;26000;48.304;13.626;2022-07-23T02:21:26;22.90;99.90
40291;DHT22;26000;48.304;13.626;2022-07-23T02:23:51;22.90;99.90
40291;DHT22;26000;48.304;13.626;2022-07-23T02:26:17;22.90;99.90
40291;DHT22;26000;48.304;13.626;2022-07-23T02:28:43;22.80;99.90
40291;DHT22;26000;48.304;13.626;2022-07-23T02:31:08;22.80;99.90
40291;DHT22;26000;48.304;13.626;2022-07-23T02:33:34;22.80;99.90
40291;DHT22;26000;48.304;13.626;2022-07-23T02:35:59;22.90;99.90
40291;DHT22;26000;48.304;13.626;2022-07-23T02:38:25;22.90;99.90
40291;DHT22;26000;48.304;13.626;2022-07-23T02:40:51;22.80;99.90
40291;DHT22;26000;48.304;13.626;2022-07-23T02:43:17;22.80;99.90
40291;DHT22;26000;48.304;13.626;2022-07-23T02:45:42;22.80;99.90
40291;DHT22;26000;48.304;13.626;2022-07-23T02:48:08;22.80;99.90
40291;DHT22;26000;48.304;13.626;2022-07-23T02:50:34;22.70;99.90
40291;DHT22;26000;48.304;13.626;2022-07-23T02:53:00;22.80;99.90
40291;DHT22;26000;48.304;13.626;2022-07-23T02:55:26;22.80;99.90
40291;DHT22;26000;48.304;13.626;2022-07-23T02:57:52;22.80;99.90
40291;DHT22;26000;48.304;13.626;2022-07-23T03:00:17;22.80;99.90
40291;DHT22;26000;48.304;13.626;2022-07-23T03:02:43;22.80;99.90
40291;DHT22;26000;48.304;13.626;2022-07-23T03:05:09;22.80;99.90
40291;DHT22;26000;48.304;13.626;2022-07-23T03:07:35;22.70;99.90
40291;DHT22;26000;48.304;13.626;2022-07-23T03:10:00;22.70;99.90
40291;DHT22;26000;48.304;13.626;2022-07-23T03:12:26;22.70;99.90
40291;DHT22;26000;48.304;13.626;2022-07-23T03:14:52;22.70;99.90
40291;DHT22;26000;48.304;13.626;2022-07-23T03:17:17;22.70;99.90
40291;DHT22;26000;48.304;13.626;2022-07-23T03:19:43;22.60;99.90
40291;DHT22;26000;48.304;13.626;2022-07-23T03:22:08;22.70;99.90
40291;DHT22;26000;48.304;13.626;2022-07-23T03:24:34;22.70;99.90
40291;DHT22;26000;48.304;13.626;2022-07-23T03:27:18;22.70;99.90
40291;DHT22;26000;48.304;13.626;2022-07-23T03:29:44;22.80;99.90
40291;DHT22;26000;48.304;13.626;2022-07-23T03:32:09;22.80;99.90
40291;DHT22;26000;48.304;13.626;2022-07-23T03:34:35;22.80;99.90
40291;DHT22;26000;48.304;13.626;2022-07-23T03:37:01;22.80;99.90
40291;DHT22;26000;48.304;13.626;2022-07-23T03:39:26;22.90;99.90
40291;DHT22;26000;48.304;13.626;2022-07-23T03:41:52;22.80;99.90
40291;DHT22;26000;48.304;13.626;2022-07-23T03:44:18;22.90;99.90
40291;DHT22;26000;48.304;13.626;2022-07-23T03:46:43;22.80;99.90
40291;DHT22;26000;48.304;13.626;2022-07-23T03:49:09;22.80;99.90
40291;DHT22;26000;48.304;13.626;2022-07-23T03:51:35;22.90;99.90
40291;DHT22;26000;48.304;13.626;2022-07-23T03:54:00;22.90;99.90
40291;DHT22;26000;48.304;13.626;2022-07-23T03:56:26;22.90;99.90
40291;DHT22;26000;48.304;13.626;2022-07-23T03:58:52;23.00;99.90
40291;DHT22;26000;48.304;13.626;2022-07-23T04:01:17;23.00;99.90
40291;DHT22;26000;48.304;13.626;2022-07-23T04:03:43;23.00;99.90
40291;DHT22;26000;48.304;13.626;2022-07-23T04:06:10;23.10;99.90
40291;DHT22;26000;48.304;13.626;2022-07-23T04:08:35;23.20;99.90
40291;DHT22;26000;48.304;13.626;2022-07-23T04:11:01;23.20;99.90
40291;DHT22;26000;48.304;13.626;2022-07-23T04:13:27;23.30;99.90
40291;DHT22;26000;48.304;13.626;2022-07-23T04:15:52;23.40;99.90
40291;DHT22;26000;48.304;13.626;2022-07-23T04:18:18;23.80;99.90
40291;DHT22;26000;48.304;13.626;2022-07-23T04:20:44;24.20;99.90
40291;DHT22;26000;48.304;13.626;2022-07-23T04:23:10;24.30;99.90
40291;DHT22;26000;48.304;13.626;2022-07-23T04:25:36;24.20;99.90
40291;DHT22;26000;48.304;13.626;2022-07-23T04:28:02;24.10;99.90
40291;DHT22;26000;48.304;13.626;2022-07-23T04:30:27;24.20;99.90
40291;DHT22;26000;48.304;13.626;2022-07-23T04:32:53;24.10;99.90
40291;DHT22;26000;48.304;13.626;2022-07-23T04:35:19;24.10;99.90
40291;DHT22;26000;48.304;13.626;2022-07-23T04:37:44;24.00;99.90
40291;DHT22;26000;48.304;13.626;2022-07-23T04:40:11;23.90;99.90
40291;DHT22;26000;48.304;13.626;2022-07-23T04:42:37;23.80;99.90
40291;DHT22;26000;48.304;13.626;2022-07-23T04:45:03;23.80;99.90
40291;DHT22;26000;48.304;13.626;2022-07-23T04:47:29;23.80;99.90
40291;DHT22;26000;48.304;13.626;2022-07-23T04:49:56;23.80;99.90
40291;DHT22;26000;48.304;13.626;2022-07-23T04:52:22;23.90;99.90
40291;DHT22;26000;48.304;13.626;2022-07-23T04:54:47;23.90;99.90
40291;DHT22;26000;48.304;13.626;2022-07-23T04:57:13;24.00;99.90
40291;DHT22;26000;48.304;13.626;2022-07-23T04:59:39;24.00;99.90
40291;DHT22;26000;48.304;13.626;2022-07-23T05:02:04;24.10;99.90
40291;DHT22;26000;48.304;13.626;2022-07-23T05:04:30;24.10;99.90
40291;DHT22;26000;48.304;13.626;2022-07-23T05:06:57;24.20;99.90
40291;DHT22;26000;48.304;13.626;2022-07-23T05:09:22;24.20;99.90
40291;DHT22;26000;48.304;13.626;2022-07-23T05:11:48;24.30;99.90
40291;DHT22;26000;48.304;13.626;2022-07-23T05:14:14;24.20;99.90
40291;DHT22;26000;48.304;13.626;2022-07-23T05:16:39;24.30;99.90
40291;DHT22;26000;48.304;13.626;2022-07-23T05:19:05;24.30;99.90
40291;DHT22;26000;48.304;13.626;2022-07-23T05:21:30;24.20;99.90
40291;DHT22;26000;48.304;13.626;2022-07-23T05:23:56;24.20;99.90
40291;DHT22;26000;48.304;13.626;2022-07-23T05:26:22;24.10;99.90
40291;DHT22;26000;48.304;13.626;2022-07-23T05:28:47;24.10;99.90
40291;DHT22;26000;48.304;13.626;2022-07-23T05:31:13;24.20;99.90
40291;DHT22;26000;48.304;13.626;2022-07-23T05:33:38;24.10;99.90
40291;DHT22;26000;48.304;13.626;2022-07-23T05:36:04;24.10;99.80
40291;DHT22;26000;48.304;13.626;2022-07-23T05:38:32;24.10;99.90
40291;DHT22;26000;48.304;13.626;2022-07-23T05:40:57;24.10;99.90
40291;DHT22;26000;48.304;13.626;2022-07-23T05:43:23;24.10;99.90
40291;DHT22;26000;48.304;13.626;2022-07-23T05:45:49;24.10;99.50
40291;DHT22;26000;48.304;13.626;2022-07-23T05:48:14;24.10;99.70
40291;DHT22;26000;48.304;13.626;2022-07-23T05:50:40;24.20;99.60
40291;DHT22;26000;48.304;13.626;2022-07-23T05:53:06;24.30;99.20
40291;DHT22;26000;48.304;13.626;2022-07-23T05:55:31;24.30;99.30
40291;DHT22;26000;48.304;13.626;2022-07-23T05:57:58;24.30;99.50
40291;DHT22;26000;48.304;13.626;2022-07-23T06:00:24;24.30;99.50
40291;DHT22;26000;48.304;13.626;2022-07-23T06:02:50;24.40;99.50
40291;DHT22;26000;48.304;13.626;2022-07-23T06:05:16;24.50;98.80
40291;DHT22;26000;48.304;13.626;2022-07-23T06:07:42;24.50;98.80
40291;DHT22;26000;48.304;13.626;2022-07-23T06:10:08;24.80;98.80
40291;DHT22;26000;48.304;13.626;2022-07-23T06:12:34;24.90;98.50
40291;DHT22;26000;48.304;13.626;2022-07-23T06:15:00;25.00;98.20
40291;DHT22;26000;48.304;13.626;2022-07-23T06:17:26;25.00;97.90
40291;DHT22;26000;48.304;13.626;2022-07-23T06:19:52;25.10;98.00
40291;DHT22;26000;48.304;13.626;2022-07-23T06:22:18;25.20;97.90
40291;DHT22;26000;48.304;13.626;2022-07-23T06:24:44;25.20;97.80
40291;DHT22;26000;48.304;13.626;2022-07-23T06:27:09;25.20;97.60
40291;DHT22;26000;48.304;13.626;2022-07-23T06:29:35;25.20;97.60
40291;DHT22;26000;48.304;13.626;2022-07-23T06:32:01;25.40;97.70
40291;DHT22;26000;48.304;13.626;2022-07-23T06:34:26;25.40;97.70
40291;DHT22;26000;48.304;13.626;2022-07-23T06:36:52;25.50;97.90
40291;DHT22;26000;48.304;13.626;2022-07-23T06:39:17;25.50;97.60
40291;DHT22;26000;48.304;13.626;2022-07-23T06:41:43;25.50;97.10
40291;DHT22;26000;48.304;13.626;2022-07-23T06:44:09;25.50;97.20
40291;DHT22;26000;48.304;13.626;2022-07-23T06:46:34;25.50;96.90
40291;DHT22;26000;48.304;13.626;2022-07-23T06:49:00;25.60;96.90
40291;DHT22;26000;48.304;13.626;2022-07-23T06:51:26;25.60;96.50
40291;DHT22;26000;48.304;13.626;2022-07-23T06:53:51;25.70;96.30
40291;DHT22;26000;48.304;13.626;2022-07-23T06:56:17;25.70;96.60
40291;DHT22;26000;48.304;13.626;2022-07-23T06:58:43;25.60;96.70
40291;DHT22;26000;48.304;13.626;2022-07-23T07:01:08;25.50;97.00
40291;DHT22;26000;48.304;13.626;2022-07-23T07:03:34;25.50;97.30
40291;DHT22;26000;48.304;13.626;2022-07-23T07:06:00;25.50;97.80
40291;DHT22;26000;48.304;13.626;2022-07-23T07:08:25;25.50;98.00
40291;DHT22;26000;48.304;13.626;2022-07-23T07:10:51;25.50;98.40
40291;DHT22;26000;48.304;13.626;2022-07-23T07:13:16;25.50;96.80
40291;DHT22;26000;48.304;13.626;2022-07-23T07:15:42;25.50;97.40
40291;DHT22;26000;48.304;13.626;2022-07-23T07:18:08;25.50;97.30
40291;DHT22;26000;48.304;13.626;2022-07-23T07:20:33;25.40;97.70
40291;DHT22;26000;48.304;13.626;2022-07-23T07:22:59;25.40;97.80
40291;DHT22;26000;48.304;13.626;2022-07-23T07:25:25;25.40;98.30
40291;DHT22;26000;48.304;13.626;2022-07-23T07:27:50;25.50;99.80
40291;DHT22;26000;48.304;13.626;2022-07-23T07:30:16;25.50;99.70
40291;DHT22;26000;48.304;13.626;2022-07-23T07:32:42;25.50;99.20
40291;DHT22;26000;48.304;13.626;2022-07-23T07:35:08;25.50;98.90
40291;DHT22;26000;48.304;13.626;2022-07-23T07:37:34;25.50;98.40
40291;DHT22;26000;48.304;13.626;2022-07-23T07:40:00;25.50;99.10
40291;DHT22;26000;48.304;13.626;2022-07-23T07:42:26;25.40;99.60
40291;DHT22;26000;48.304;13.626;2022-07-23T07:44:52;25.40;99.90
40291;DHT22;26000;48.304;13.626;2022-07-23T07:47:17;25.40;99.60
40291;DHT22;26000;48.304;13.626;2022-07-23T07:49:43;25.30;98.20
40291;DHT22;26000;48.304;13.626;2022-07-23T07:52:10;25.40;99.00
40291;DHT22;26000;48.304;13.626;2022-07-23T07:54:36;25.40;99.10
40291;DHT22;26000;48.304;13.626;2022-07-23T07:57:01;25.40;98.30
40291;DHT22;26000;48.304;13.626;2022-07-23T07:59:28;25.50;98.10
40291;DHT22;26000;48.304;13.626;2022-07-23T08:01:53;25.60;97.70
40291;DHT22;26000;48.304;13.626;2022-07-23T08:04:19;25.70;98.00
40291;DHT22;26000;48.304;13.626;2022-07-23T08:06:45;25.80;98.00
40291;DHT22;26000;48.304;13.626;2022-07-23T08:09:10;25.80;98.50
40291;DHT22;26000;48.304;13.626;2022-07-23T08:11:36;25.90;98.30
40291;DHT22;26000;48.304;13.626;2022-07-23T08:14:02;25.90;98.30
40291;DHT22;26000;48.304;13.626;2022-07-23T08:16:28;26.00;98.80
40291;DHT22;26000;48.304;13.626;2022-07-23T08:18:53;26.10;98.60
40291;DHT22;26000;48.304;13.626;2022-07-23T08:21:19;26.20;98.10
40291;DHT22;26000;48.304;13.626;2022-07-23T08:23:45;26.30;98.30
40291;DHT22;26000;48.304;13.626;2022-07-23T08:26:10;26.30;97.50
40291;DHT22;26000;48.304;13.626;2022-07-23T08:28:36;26.40;97.30
40291;DHT22;26000;48.304;13.626;2022-07-23T08:31:02;26.40;97.80
40291;DHT22;26000;48.304;13.626;2022-07-23T08:33:28;26.60;97.80
40291;DHT22;26000;48.304;13.626;2022-07-23T08:35:53;26.60;97.50
40291;DHT22;26000;48.304;13.626;2022-07-23T08:38:21;26.70;97.30
40291;DHT22;26000;48.304;13.626;2022-07-23T08:40:49;26.80;97.50
40291;DHT22;26000;48.304;13.626;2022-07-23T08:43:18;26.80;97.30
40291;DHT22;26000;48.304;13.626;2022-07-23T08:45:46;26.80;97.40
40291;DHT22;26000;48.304;13.626;2022-07-23T08:48:14;26.70;97.20
40291;DHT22;26000;48.304;13.626;2022-07-23T08:50:49;26.80;97.20
40291;DHT22;26000;48.304;13.626;2022-07-23T08:53:16;26.80;97.10
40291;DHT22;26000;48.304;13.626;2022-07-23T08:55:57;26.80;97.20
40291;DHT22;26000;48.304;13.626;2022-07-23T08:58:23;26.80;97.10
40291;DHT22;26000;48.304;13.626;2022-07-23T09:00:49;26.90;97.40
40291;DHT22;26000;48.304;13.626;2022-07-23T09:03:18;27.00;96.70
40291;DHT22;26000;48.304;13.626;2022-07-23T09:05:44;27.20;96.80
40291;DHT22;26000;48.304;13.626;2022-07-23T09:08:15;27.40;96.20
40291;DHT22;26000;48.304;13.626;2022-07-23T09:16:03;27.60;96.20
40291;DHT22;26000;48.304;13.626;2022-07-23T09:18:35;27.70;95.80
40291;DHT22;26000;48.304;13.626;2022-07-23T09:26:44;27.80;96.70
40291;DHT22;26000;48.304;13.626;2022-07-23T09:29:23;27.90;95.10
40291;DHT22;26000;48.304;13.626;2022-07-23T09:36:56;28.10;94.80
40291;DHT22;26000;48.304;13.626;2022-07-23T09:39:31;28.10;94.00
40291;DHT22;26000;48.304;13.626;2022-07-23T09:42:20;28.20;93.70
40291;DHT22;26000;48.304;13.626;2022-07-23T09:44:46;28.40;94.60
40291;DHT22;26000;48.304;13.626;2022-07-23T09:47:12;28.60;95.40
40291;DHT22;26000;48.304;13.626;2022-07-23T09:49:38;28.90;95.00
40291;DHT22;26000;48.304;13.626;2022-07-23T09:52:04;29.10;94.80
40291;DHT22;26000;48.304;13.626;2022-07-23T09:54:36;29.30;93.90
40291;DHT22;26000;48.304;13.626;2022-07-23T09:59:37;30.00;91.90
40291;DHT22;26000;48.304;13.626;2022-07-23T10:02:05;30.10;92.50
40291;DHT22;26000;48.304;13.626;2022-07-23T10:04:32;30.10;93.20
40291;DHT22;26000;48.304;13.626;2022-07-23T10:07:00;30.00;92.30
40291;DHT22;26000;48.304;13.626;2022-07-23T10:09:30;30.10;91.60
40291;DHT22;26000;48.304;13.626;2022-07-23T10:12:01;30.40;92.50
40291;DHT22;26000;48.304;13.626;2022-07-23T10:14:46;30.60;93.10
40291;DHT22;26000;48.304;13.626;2022-07-23T10:17:13;30.60;91.90
40291;DHT22;26000;48.304;13.626;2022-07-23T10:19:39;30.80;92.30
40291;DHT22;26000;48.304;13.626;2022-07-23T10:22:08;31.00;92.30
40291;DHT22;26000;48.304;13.626;2022-07-23T10:36:08;31.30;91.20
40291;DHT22;26000;48.304;13.626;2022-07-23T10:41:06;31.10;90.80
40291;DHT22;26000;48.304;13.626;2022-07-23T10:43:32;30.90;90.50
40291;DHT22;26000;48.304;13.626;2022-07-23T10:46:21;30.70;90.80
40291;DHT22;26000;48.304;13.626;2022-07-23T10:52:15;30.60;91.50
40291;DHT22;26000;48.304;13.626;2022-07-23T10:57:27;30.10;91.30
40291;DHT22;26000;48.304;13.626;2022-07-23T11:02:29;29.70;90.80
40291;DHT22;26000;48.304;13.626;2022-07-23T11:05:06;29.50;91.60
40291;DHT22;26000;48.304;13.626;2022-07-23T11:07:33;29.70;93.10
40291;DHT22;26000;48.304;13.626;2022-07-23T11:09:58;30.10;92.30
40291;DHT22;26000;48.304;13.626;2022-07-23T11:17:37;30.60;90.80
40291;DHT22;26000;48.304;13.626;2022-07-23T11:25:01;30.70;91.00
40291;DHT22;26000;48.304;13.626;2022-07-23T11:28:13;30.80;90.70
40291;DHT22;26000;48.304;13.626;2022-07-23T11:30:41;30.70;90.40
40291;DHT22;26000;48.304;13.626;2022-07-23T11:35:35;30.40;90.70
40291;DHT22;26000;48.304;13.626;2022-07-23T11:38:27;30.20;90.70
40291;DHT22;26000;48.304;13.626;2022-07-23T11:40:53;30.40;91.40
40291;DHT22;26000;48.304;13.626;2022-07-23T11:43:21;30.40;90.20
40291;DHT22;26000;48.304;13.626;2022-07-23T11:45:49;30.20;90.20
40291;DHT22;26000;48.304;13.626;2022-07-23T11:48:22;29.90;90.40
40291;DHT22;26000;48.304;13.626;2022-07-23T11:50:48;29.70;91.40
40291;DHT22;26000;48.304;13.626;2022-07-23T11:53:27;29.60;91.30
40291;DHT22;26000;48.304;13.626;2022-07-23T11:55:54;29.50;91.70
40291;DHT22;26000;48.304;13.626;2022-07-23T11:58:20;29.40;91.50
40291;DHT22;26000;48.304;13.626;2022-07-23T12:00:47;29.40;91.30
40291;DHT22;26000;48.304;13.626;2022-07-23T12:03:13;29.40;91.50
40291;DHT22;26000;48.304;13.626;2022-07-23T12:05:39;29.40;91.90
40291;DHT22;26000;48.304;13.626;2022-07-23T12:08:07;29.40;91.80
40291;DHT22;26000;48.304;13.626;2022-07-23T12:10:40;29.40;90.60
40291;DHT22;26000;48.304;13.626;2022-07-23T12:13:15;29.30;91.10
40291;DHT22;26000;48.304;13.626;2022-07-23T12:15:46;29.30;91.70
40291;DHT22;26000;48.304;13.626;2022-07-23T12:18:16;29.40;92.80
40291;DHT22;26000;48.304;13.626;2022-07-23T12:20:45;29.30;92.30
40291;DHT22;26000;48.304;13.626;2022-07-23T12:23:14;29.40;92.00
40291;DHT22;26000;48.304;13.626;2022-07-23T12:25:43;29.50;92.10
40291;DHT22;26000;48.304;13.626;2022-07-23T12:28:11;29.70;91.90
40291;DHT22;26000;48.304;13.626;2022-07-23T12:30:38;29.80;91.40
40291;DHT22;26000;48.304;13.626;2022-07-23T12:33:05;29.80;91.70
40291;DHT22;26000;48.304;13.626;2022-07-23T12:38:02;29.60;91.80
40291;DHT22;26000;48.304;13.626;2022-07-23T12:40:31;29.40;91.10
40291;DHT22;26000;48.304;13.626;2022-07-23T12:43:04;29.10;90.90
40291;DHT22;26000;48.304;13.626;2022-07-23T12:45:55;29.00;90.60
40291;DHT22;26000;48.304;13.626;2022-07-23T12:48:52;28.80;90.90
40291;DHT22;26000;48.304;13.626;2022-07-23T12:51:27;28.70;91.40
40291;DHT22;26000;48.304;13.626;2022-07-23T12:54:10;28.70;91.40
40291;DHT22;26000;48.304;13.626;2022-07-23T12:56:37;28.80;92.00
40291;DHT22;26000;48.304;13.626;2022-07-23T12:59:05;28.90;92.20
40291;DHT22;26000;48.304;13.626;2022-07-23T13:04:19;29.10;92.00
40291;DHT22;26000;48.304;13.626;2022-07-23T13:09:15;29.10;91.80
40291;DHT22;26000;48.304;13.626;2022-07-23T13:11:43;29.00;91.90
40291;DHT22;26000;48.304;13.626;2022-07-23T13:14:08;29.00;92.10
40291;DHT22;26000;48.304;13.626;2022-07-23T13:16:34;29.00;92.10
40291;DHT22;26000;48.304;13.626;2022-07-23T13:19:00;29.00;92.20
40291;DHT22;26000;48.304;13.626;2022-07-23T13:21:29;29.00;92.10
40291;DHT22;26000;48.304;13.626;2022-07-23T13:23:55;29.00;91.90
40291;DHT22;26000;48.304;13.626;2022-07-23T13:26:21;29.00;92.40
40291;DHT22;26000;48.304;13.626;2022-07-23T13:28:47;29.00;92.40
40291;DHT22;26000;48.304;13.626;2022-07-23T13:31:13;28.90;92.30
40291;DHT22;26000;48.304;13.626;2022-07-23T13:33:39;28.80;92.20
40291;DHT22;26000;48.304;13.626;2022-07-23T13:36:05;28.80;92.50
40291;DHT22;26000;48.304;13.626;2022-07-23T13:38:31;28.80;92.40
40291;DHT22;26000;48.304;13.626;2022-07-23T13:40:57;28.70;92.50
40291;DHT22;26000;48.304;13.626;2022-07-23T13:43:24;28.70;92.70
40291;DHT22;26000;48.304;13.626;2022-07-23T13:45:52;28.60;92.80
40291;DHT22;26000;48.304;13.626;2022-07-23T13:48:18;28.60;93.00
40291;DHT22;26000;48.304;13.626;2022-07-23T13:50:44;28.50;92.80
40291;DHT22;26000;48.304;13.626;2022-07-23T13:53:15;28.40;92.80
40291;DHT22;26000;48.304;13.626;2022-07-23T13:55:41;28.40;92.70
40291;DHT22;26000;48.304;13.626;2022-07-23T13:58:08;28.30;92.90
40291;DHT22;26000;48.304;13.626;2022-07-23T14:00:36;28.20;93.20
40291;DHT22;26000;48.304;13.626;2022-07-23T14:03:03;28.20;93.60
40291;DHT22;26000;48.304;13.626;2022-07-23T14:05:29;28.20;93.10
40291;DHT22;26000;48.304;13.626;2022-07-23T14:07:55;28.10;93.30
40291;DHT22;26000;48.304;13.626;2022-07-23T14:10:21;28.10;93.80
40291;DHT22;26000;48.304;13.626;2022-07-23T14:12:49;28.10;93.90
40291;DHT22;26000;48.304;13.626;2022-07-23T14:15:16;28.10;93.80
40291;DHT22;26000;48.304;13.626;2022-07-23T14:17:43;28.10;94.00
40291;DHT22;26000;48.304;13.626;2022-07-23T14:20:11;28.30;93.40
40291;DHT22;26000;48.304;13.626;2022-07-23T14:22:37;28.30;93.30
40291;DHT22;26000;48.304;13.626;2022-07-23T14:25:04;28.40;93.50
40291;DHT22;26000;48.304;13.626;2022-07-23T14:27:30;28.30;93.20
40291;DHT22;26000;48.304;13.626;2022-07-23T14:29:56;28.20;93.10
40291;DHT22;26000;48.304;13.626;2022-07-23T14:32:22;28.20;92.90
40291;DHT22;26000;48.304;13.626;2022-07-23T14:34:48;28.20;92.50
40291;DHT22;26000;48.304;13.626;2022-07-23T14:37:14;28.00;92.80
40291;DHT22;26000;48.304;13.626;2022-07-23T14:39:41;28.00;93.00
40291;DHT22;26000;48.304;13.626;2022-07-23T14:42:07;28.00;92.90
40291;DHT22;26000;48.304;13.626;2022-07-23T14:44:33;28.00;92.50
40291;DHT22;26000;48.304;13.626;2022-07-23T14:46:59;28.00;93.00
40291;DHT22;26000;48.304;13.626;2022-07-23T14:49:26;27.90;93.20
40291;DHT22;26000;48.304;13.626;2022-07-23T14:51:52;27.90;92.80
40291;DHT22;26000;48.304;13.626;2022-07-23T14:54:18;27.90;92.90
40291;DHT22;26000;48.304;13.626;2022-07-23T14:56:45;27.70;92.90
40291;DHT22;26000;48.304;13.626;2022-07-23T14:59:11;27.50;92.60
40291;DHT22;26000;48.304;13.626;2022-07-23T15:01:37;27.40;92.70
40291;DHT22;26000;48.304;13.626;2022-07-23T15:04:04;27.30;92.80
40291;DHT22;26000;48.304;13.626;2022-07-23T15:06:29;27.30;92.90
40291;DHT22;26000;48.304;13.626;2022-07-23T15:08:55;27.30;93.10
40291;DHT22;26000;48.304;13.626;2022-07-23T15:11:21;27.30;93.10
40291;DHT22;26000;48.304;13.626;2022-07-23T15:13:46;27.20;93.20
40291;DHT22;26000;48.304;13.626;2022-07-23T15:16:12;27.20;93.30
40291;DHT22;26000;48.304;13.626;2022-07-23T15:18:38;27.20;93.60
40291;DHT22;26000;48.304;13.626;2022-07-23T15:21:04;27.20;93.70
40291;DHT22;26000;48.304;13.626;2022-07-23T15:23:30;27.20;93.50
40291;DHT22;26000;48.304;13.626;2022-07-23T15:25:56;27.10;93.20
40291;DHT22;26000;48.304;13.626;2022-07-23T15:28:22;27.10;93.10
40291;DHT22;26000;48.304;13.626;2022-07-23T15:30:51;27.10;93.30
40291;DHT22;26000;48.304;13.626;2022-07-23T15:33:18;27.10;92.90
40291;DHT22;26000;48.304;13.626;2022-07-23T15:35:44;27.10;92.90
40291;DHT22;26000;48.304;13.626;2022-07-23T15:38:10;27.10;92.80
40291;DHT22;26000;48.304;13.626;2022-07-23T15:40:35;27.10;92.90
40291;DHT22;26000;48.304;13.626;2022-07-23T15:43:01;27.10;93.10
40291;DHT22;26000;48.304;13.626;2022-07-23T15:45:28;27.10;93.00
40291;DHT22;26000;48.304;13.626;2022-07-23T15:47:55;27.00;93.00
40291;DHT22;26000;48.304;13.626;2022-07-23T15:50:20;27.10;93.00
40291;DHT22;26000;48.304;13.626;2022-07-23T15:52:46;27.10;92.80
40291;DHT22;26000;48.304;13.626;2022-07-23T15:55:12;27.20;93.40
40291;DHT22;26000;48.304;13.626;2022-07-23T15:57:37;27.20;93.10
40291;DHT22;26000;48.304;13.626;2022-07-23T16:00:05;27.30;93.30
40291;DHT22;26000;48.304;13.626;2022-07-23T16:02:31;27.30;92.90
40291;DHT22;26000;48.304;13.626;2022-07-23T16:04:57;27.30;92.70
40291;DHT22;26000;48.304;13.626;2022-07-23T16:07:22;27.30;92.80
40291;DHT22;26000;48.304;13.626;2022-07-23T16:09:48;27.30;93.10
40291;DHT22;26000;48.304;13.626;2022-07-23T16:12:14;27.40;93.30
40291;DHT22;26000;48.304;13.626;2022-07-23T16:14:39;27.40;93.70